Terminal Aerodrome Forecast
Issued by NWS Charleston, WV

Current Version | Previous Version | Graphics & Text | Print | Product List | Glossary On
Versions: 1 2 3 4 5 6 7 8 9 10 11 12 13 14 15 16 17 18 19 20 21 22
000
FTUS41 KRLX 301453 AAA
TAFEKN
TAF AMD
KEKN 301453Z 3015/0112 21004KT P6SM OVC090
     FM302000 17007KT 5SM -SHRA OVC020
     FM302300 17008KT 2SM SHRA OVC014
     FM010100 16008G15KT 4SM -SHRA OVC014
     FM010300 15009G16KT P6SM -SHRA OVC017=

USA.gov is the U.S. government's official web portal to all federal, state and local government web resources and services.